Terminal Aerodrome Forecast
Issued by NWS

Home | Current Version | Previous Version | Text Only | Print | Product List | Glossary On
Versions: 1 2 3 4 5 6 7 8 9 10 11 12
000
FTAK31 PAJN 281700
TAFAPG
TAF
PAPG 281737Z 2818/0118 VRB04KT P6SM BKN180
     FM010000 VRB04KT P6SM BKN120
     FM011200 00000KT 6SM -RA BR BKN020 OVC040
     FM011500 00000KT 4SM -RA BR BKN010 OVC020
      AMD LTD TO CLD VIS AND WIND 0106/0115=

USA.gov is the U.S. government's official web portal to all federal, state and local government web resources and services.